Time;durP1;ratioP1;P1;durP2;ratioP2;P2;SDS_P1;SDS_P2;PMS_P1;PMS_P2;Temp;Humidity;BMP_temperature;BMP_pressure;BME280_temperature;BME280_humidity;BME280_pressure;Samples;Min_cycle;Max_cycle;Signal;HPM_P1;HPM_P2
2022/10/18 00:00:43;;;;;;;2.47;1.88;;;16.80;68.80;;;;;;5085945;28;20139;-75
2022/10/18 00:03:10;;;;;;;2.53;1.60;;;16.80;68.80;;;;;;5093415;28;20062;-75
2022/10/18 00:05:37;;;;;;;2.42;1.70;;;16.80;68.80;;;;;;5093058;28;20052;-75
2022/10/18 00:08:03;;;;;;;1.98;1.60;;;16.80;68.80;;;;;;5093242;28;20519;-75
2022/10/18 00:10:30;;;;;;;2.45;1.75;;;16.80;68.90;;;;;;5093046;28;20062;-75
2022/10/18 00:12:58;;;;;;;2.40;1.60;;;16.80;68.80;;;;;;5091977;28;20058;-75
2022/10/18 00:15:25;;;;;;;2.17;1.85;;;16.80;68.80;;;;;;5078888;28;20040;-74
2022/10/18 00:17:51;;;;;;;2.03;1.58;;;16.80;68.80;;;;;;5092771;28;20052;-75
2022/10/18 00:20:18;;;;;;;2.33;1.60;;;16.80;68.90;;;;;;5093628;28;20043;-75
2022/10/18 00:22:45;;;;;;;2.10;1.73;;;16.90;68.90;;;;;;5092727;28;20067;-74
2022/10/18 00:25:11;;;;;;;2.70;2.00;;;16.70;68.80;;;;;;5093929;28;20135;-75
2022/10/18 00:27:38;;;;;;;1.70;1.60;;;16.80;68.80;;;;;;5092893;28;20390;-75
2022/10/18 00:30:07;;;;;;;1.70;1.60;;;16.80;70.00;;;;;;5091044;28;20083;-75
2022/10/18 00:32:36;;;;;;;2.00;1.70;;;16.80;68.90;;;;;;5092414;28;20051;-75
2022/10/18 00:35:03;;;;;;;2.58;1.80;;;16.80;68.80;;;;;;5092772;28;20077;-75
2022/10/18 00:37:29;;;;;;;3.05;1.50;;;16.80;68.90;;;;;;5092514;28;20048;-74
2022/10/18 00:39:56;;;;;;;2.20;1.70;;;16.80;68.90;;;;;;5092506;28;20052;-75
2022/10/18 00:42:23;;;;;;;2.10;1.90;;;16.70;68.80;;;;;;5093392;28;20155;-75
2022/10/18 00:45:14;;;;;;;2.10;1.60;;;16.80;68.90;;;;;;5083715;28;20139;-74
2022/10/18 00:47:41;;;;;;;2.83;2.00;;;16.80;68.80;;;;;;5072273;28;20055;-75
2022/10/18 00:50:08;;;;;;;2.72;1.80;;;16.70;68.90;;;;;;5072030;28;20062;-74
2022/10/18 00:52:37;;;;;;;2.05;1.70;;;16.80;68.90;;;;;;5071947;28;20127;-75
2022/10/18 00:55:04;;;;;;;2.08;1.80;;;16.70;68.80;;;;;;5073209;28;20053;-75
2022/10/18 00:57:31;;;;;;;1.95;1.75;;;16.70;69.40;;;;;;5055333;28;20489;-75
2022/10/18 00:59:58;;;;;;;2.47;1.90;;;16.70;68.80;;;;;;5091210;28;20066;-74
2022/10/18 01:02:26;;;;;;;1.85;1.67;;;16.70;68.80;;;;;;5092273;28;20509;-75
2022/10/18 01:04:53;;;;;;;1.77;1.60;;;16.80;68.90;;;;;;5092126;28;20056;-75
2022/10/18 01:07:50;;;;;;;1.90;1.70;;;16.70;68.80;;;;;;5092282;28;20081;-75
2022/10/18 01:10:23;;;;;;;1.85;1.70;;;16.70;68.70;;;;;;5091735;28;20158;-75
2022/10/18 01:12:53;;;;;;;2.00;1.63;;;16.70;68.80;;;;;;5086491;28;20049;-75
2022/10/18 01:15:23;;;;;;;2.47;1.65;;;16.70;68.90;;;;;;5071780;28;20535;-74
2022/10/18 01:17:55;;;;;;;2.38;1.80;;;16.70;68.90;;;;;;5071507;28;20136;-74
2022/10/18 01:20:46;;;;;;;1.95;1.75;;;16.70;68.80;;;;;;5071307;28;20056;-75
2022/10/18 01:23:16;;;;;;;2.15;1.60;;;16.70;68.70;;;;;;5071359;28;20131;-75
2022/10/18 01:25:50;;;;;;;1.60;1.50;;;16.70;68.90;;;;;;5071300;28;20057;-75
2022/10/18 01:28:25;;;;;;;1.75;1.52;;;16.70;68.80;;;;;;5090030;28;20074;-74
2022/10/18 01:30:55;;;;;;;2.50;1.70;;;16.70;68.90;;;;;;5091529;28;20135;-75
2022/10/18 01:33:26;;;;;;;1.88;1.60;;;16.70;68.80;;;;;;5091283;28;20127;-75
2022/10/18 01:35:55;;;;;;;2.47;2.10;;;16.70;68.80;;;;;;5091679;28;20067;-75
2022/10/18 01:38:21;;;;;;;3.00;1.75;;;16.70;68.90;;;;;;5091291;28;20135;-74
2022/10/18 01:40:49;;;;;;;2.30;1.70;;;16.60;68.80;;;;;;5091094;28;20060;-75
2022/10/18 01:43:15;;;;;;;2.10;1.73;;;16.60;68.80;;;;;;5071667;28;20052;-75
2022/10/18 01:45:42;;;;;;;2.58;1.90;;;16.70;68.90;;;;;;5071272;28;20052;-75
2022/10/18 01:48:10;;;;;;;2.55;1.70;;;16.70;68.90;;;;;;5071385;28;20063;-75
2022/10/18 01:50:37;;;;;;;2.28;1.88;;;16.70;68.90;;;;;;5073021;28;20058;-75
2022/10/18 01:53:04;;;;;;;2.50;1.88;;;16.60;68.80;;;;;;5071879;28;20110;-75
2022/10/18 01:55:33;;;;;;;1.75;1.60;;;16.60;68.80;;;;;;5071129;28;20064;-75
2022/10/18 01:58:03;;;;;;;2.38;1.70;;;16.70;68.90;;;;;;5071292;28;20131;-75
2022/10/18 02:00:32;;;;;;;2.45;1.80;;;16.60;68.80;;;;;;5070904;28;20465;-75
2022/10/18 02:03:01;;;;;;;2.38;1.98;;;16.60;68.80;;;;;;5071022;28;20044;-75
2022/10/18 02:05:32;;;;;;;1.80;1.50;;;16.60;68.80;;;;;;5085759;28;20055;-75
2022/10/18 02:08:02;;;;;;;2.20;1.70;;;16.70;68.90;;;;;;5091421;28;20055;-74
2022/10/18 02:10:31;;;;;;;1.60;1.50;;;16.60;68.80;;;;;;5090757;28;20052;-74
2022/10/18 02:12:58;;;;;;;2.10;1.90;;;16.60;68.80;;;;;;5091111;28;20058;-75
2022/10/18 02:15:30;;;;;;;1.83;1.65;;;16.70;68.80;;;;;;5090836;28;20058;-74
2022/10/18 02:17:56;;;;;;;2.13;1.70;;;16.60;68.80;;;;;;5090823;28;20135;-74
2022/10/18 02:20:24;;;;;;;2.65;2.00;;;16.60;68.80;;;;;;5075626;28;20053;-75
2022/10/18 02:22:53;;;;;;;2.22;1.80;;;16.70;68.90;;;;;;5071901;28;20052;-74
2022/10/18 02:25:22;;;;;;;2.17;1.83;;;16.60;68.80;;;;;;5070380;28;20060;-74
2022/10/18 02:27:49;;;;;;;3.35;1.70;;;16.60;68.80;;;;;;5070514;28;20062;-75
2022/10/18 02:30:15;;;;;;;2.30;1.70;;;16.70;68.80;;;;;;5070565;28;20428;-74
2022/10/18 02:32:44;;;;;;;2.20;1.48;;;16.70;68.80;;;;;;5073585;28;20131;-74
2022/10/18 02:35:13;;;;;;;2.72;1.77;;;16.70;68.80;;;;;;5090916;28;20067;-74
2022/10/18 02:37:40;;;;;;;2.15;1.75;;;16.70;68.80;;;;;;5071352;28;20062;-74
2022/10/18 02:40:09;;;;;;;1.88;1.60;;;16.60;69.30;;;;;;5070313;28;20060;-74
2022/10/18 02:42:37;;;;;;;2.17;1.77;;;16.60;68.80;;;;;;5070431;28;20045;-74
2022/10/18 02:45:04;;;;;;;2.50;1.80;;;16.60;68.80;;;;;;5070271;28;20048;-74
2022/10/18 02:47:31;;;;;;;2.22;1.90;;;16.60;68.80;;;;;;5070370;28;20056;-74
2022/10/18 02:49:57;;;;;;;2.35;2.00;;;16.60;68.80;;;;;;5084268;28;20081;-74
2022/10/18 02:52:24;;;;;;;2.17;1.60;;;16.60;68.80;;;;;;5090175;28;20066;-74
2022/10/18 02:54:51;;;;;;;2.03;1.70;;;16.70;71.30;;;;;;5090678;28;20051;-74
2022/10/18 02:57:19;;;;;;;2.00;1.58;;;16.60;68.80;;;;;;5091558;28;20392;-74
2022/10/18 02:59:45;;;;;;;2.00;1.80;;;16.60;68.80;;;;;;5090406;28;20062;-74
2022/10/18 03:02:12;;;;;;;1.85;1.67;;;16.60;68.80;;;;;;5091272;28;20136;-74
2022/10/18 03:04:42;;;;;;;1.95;1.70;;;16.60;68.80;;;;;;5077394;28;20501;-74
2022/10/18 03:07:09;;;;;;;1.90;1.70;;;16.60;68.80;;;;;;5070315;28;20143;-74
2022/10/18 03:09:35;;;;;;;1.90;1.70;;;16.60;68.80;;;;;;5070196;28;20090;-74
2022/10/18 03:12:02;;;;;;;2.30;1.95;;;16.60;68.80;;;;;;5069932;28;20049;-74
2022/10/18 03:14:30;;;;;;;2.30;1.75;;;16.60;68.80;;;;;;5069980;28;20057;-74
2022/10/18 03:16:57;;;;;;;1.83;1.50;;;16.60;68.80;;;;;;5070620;28;20063;-74
2022/10/18 03:19:24;;;;;;;2.08;1.80;;;16.60;68.80;;;;;;5090257;28;20134;-74
2022/10/18 03:21:50;;;;;;;2.40;1.70;;;16.60;68.80;;;;;;5090132;28;20131;-74
2022/10/18 03:24:17;;;;;;;1.83;1.63;;;16.60;68.70;;;;;;5090143;28;20054;-74
2022/10/18 03:26:44;;;;;;;1.92;1.52;;;16.60;68.80;;;;;;5090068;28;20056;-74
2022/10/18 03:29:11;;;;;;;1.77;1.60;;;16.60;68.70;;;;;;5090159;28;20419;-74
2022/10/18 03:31:39;;;;;;;2.63;1.50;;;16.60;68.70;;;;;;5089626;28;20060;-74
2022/10/18 03:34:06;;;;;;;1.75;1.60;;;16.60;68.70;;;;;;5091225;28;20413;-74
2022/10/18 03:36:33;;;;;;;2.22;1.70;;;16.60;68.70;;;;;;5091606;28;20135;-74
2022/10/18 03:39:00;;;;;;;2.10;1.50;;;16.60;68.70;;;;;;5093904;28;20516;-74
2022/10/18 03:41:27;;;;;;;1.95;1.75;;;16.60;68.70;;;;;;5093552;28;20136;-74
2022/10/18 03:43:54;;;;;;;1.75;1.58;;;16.60;68.70;;;;;;5093770;28;20055;-74
2022/10/18 03:46:20;;;;;;;1.60;1.50;;;16.60;68.70;;;;;;5085814;28;20667;-74
2022/10/18 03:48:48;;;;;;;1.60;1.50;;;16.60;68.70;;;;;;5073175;28;20052;-74
2022/10/18 03:51:15;;;;;;;2.03;1.83;;;16.60;68.70;;;;;;5074209;28;20048;-74
2022/10/18 03:53:42;;;;;;;1.50;1.40;;;16.60;68.70;;;;;;5073016;28;20048;-74
2022/10/18 03:56:09;;;;;;;1.73;1.58;;;16.60;68.70;;;;;;5073413;28;20059;-74
2022/10/18 03:58:35;;;;;;;2.20;1.75;;;16.60;68.70;;;;;;5073030;28;20851;-74
2022/10/18 04:01:02;;;;;;;1.77;1.50;;;16.60;68.70;;;;;;5079654;28;20056;-74
2022/10/18 04:03:29;;;;;;;1.92;1.50;;;16.60;68.70;;;;;;5094541;28;20484;-74
2022/10/18 04:05:59;;;;;;;1.70;1.50;;;16.60;68.70;;;;;;5093393;28;20135;-74
2022/10/18 04:08:26;;;;;;;1.90;1.60;;;16.50;68.60;;;;;;5093427;28;20092;-74
2022/10/18 04:10:52;;;;;;;1.52;1.42;;;16.60;68.70;;;;;;5092920;28;20411;-74
2022/10/18 04:13:19;;;;;;;1.67;1.50;;;16.50;68.70;;;;;;5092945;28;20185;-74
2022/10/18 04:15:46;;;;;;;1.60;1.50;;;16.60;68.70;;;;;;5077634;28;20060;-74
2022/10/18 04:18:13;;;;;;;2.55;1.60;;;16.60;68.70;;;;;;5074068;28;20045;-74
2022/10/18 04:20:39;;;;;;;1.65;1.50;;;16.60;68.70;;;;;;5072411;28;20152;-74
2022/10/18 04:23:08;;;;;;;1.50;1.40;;;16.50;68.60;;;;;;5072674;28;20056;-74
2022/10/18 04:25:34;;;;;;;1.92;1.60;;;16.60;68.70;;;;;;5072715;28;20527;-74
2022/10/18 04:28:03;;;;;;;2.05;1.58;;;16.60;68.70;;;;;;5091184;28;20052;-74
2022/10/18 04:30:30;;;;;;;1.90;1.50;;;16.50;68.70;;;;;;5091181;28;20142;-74
2022/10/18 04:32:57;;;;;;;1.75;1.65;;;16.60;68.70;;;;;;5092734;28;20052;-74
2022/10/18 04:35:24;;;;;;;1.65;1.50;;;16.50;68.70;;;;;;5107884;28;20051;-74
2022/10/18 04:37:51;;;;;;;2.03;1.40;;;16.50;68.60;;;;;;5113445;28;20087;-74
2022/10/18 04:40:19;;;;;;;1.60;1.40;;;16.50;68.70;;;;;;5113562;28;20730;-73
2022/10/18 04:42:46;;;;;;;1.80;1.48;;;16.50;68.70;;;;;;5111616;28;20055;-73
2022/10/18 04:45:13;;;;;;;2.20;1.45;;;16.50;68.70;;;;;;5090570;28;20144;-74
2022/10/18 04:47:39;;;;;;;1.35;1.25;;;16.50;68.70;;;;;;5092017;28;20404;-73
2022/10/18 04:50:07;;;;;;;1.60;1.40;;;16.50;68.70;;;;;;5090774;28;20104;-73
2022/10/18 04:52:33;;;;;;;1.52;1.40;;;16.50;68.70;;;;;;5093223;28;20062;-73
2022/10/18 04:55:00;;;;;;;1.80;1.30;;;16.50;68.70;;;;;;5093177;28;20130;-73
2022/10/18 04:57:28;;;;;;;1.50;1.40;;;16.50;68.70;;;;;;5093253;28;20572;-75
2022/10/18 04:59:55;;;;;;;1.50;1.40;;;16.50;68.70;;;;;;5066379;28;20497;-74
2022/10/18 05:02:21;;;;;;;1.67;1.58;;;16.50;68.70;;;;;;5071912;28;20103;-75
2022/10/18 05:04:48;;;;;;;1.50;1.40;;;16.50;68.70;;;;;;5090288;28;20404;-75
2022/10/18 05:07:16;;;;;;;1.50;1.40;;;16.50;68.70;;;;;;5091966;28;20062;-73
2022/10/18 05:09:42;;;;;;;1.40;1.30;;;16.50;68.70;;;;;;5091895;28;20503;-75
2022/10/18 05:12:09;;;;;;;1.50;1.40;;;16.50;68.70;;;;;;5093221;28;20058;-74
2022/10/18 05:14:37;;;;;;;1.40;1.30;;;16.50;68.70;;;;;;5091054;28;20473;-75
2022/10/18 05:17:04;;;;;;;2.53;1.55;;;16.50;68.70;;;;;;5091845;28;20048;-75
2022/10/18 05:19:30;;;;;;;1.30;1.20;;;16.50;68.70;;;;;;5091883;28;20488;-74
2022/10/18 05:21:57;;;;;;;1.50;1.40;;;16.50;68.70;;;;;;5093880;28;20140;-73
2022/10/18 05:24:24;;;;;;;1.40;1.30;;;16.50;68.70;;;;;;5094382;28;20408;-74
2022/10/18 05:26:50;;;;;;;1.40;1.30;;;16.50;68.70;;;;;;5093763;28;20052;-73
2022/10/18 05:29:17;;;;;;;1.50;1.40;;;16.50;68.70;;;;;;5077379;28;20139;-73
2022/10/18 05:31:46;;;;;;;1.73;1.40;;;16.50;68.70;;;;;;5071700;28;20055;-74
2022/10/18 05:34:12;;;;;;;1.52;1.30;;;16.50;68.70;;;;;;5071905;28;20131;-73
2022/10/18 05:36:39;;;;;;;1.60;1.45;;;16.50;68.70;;;;;;5071402;28;20060;-75
2022/10/18 05:39:06;;;;;;;1.40;1.30;;;16.50;68.70;;;;;;5071321;28;20086;-74
2022/10/18 05:41:32;;;;;;;1.60;1.50;;;16.50;68.70;;;;;;5071121;28;20060;-75
2022/10/18 05:44:02;;;;;;;1.30;1.20;;;16.50;68.80;;;;;;5086107;28;20157;-75
2022/10/18 05:46:29;;;;;;;1.40;1.30;;;16.50;68.80;;;;;;5092731;28;20043;-74
2022/10/18 05:48:57;;;;;;;1.73;1.42;;;16.50;68.80;;;;;;5091232;28;20044;-74
2022/10/18 05:51:26;;;;;;;1.70;1.50;;;16.50;68.70;;;;;;5091152;28;20074;-74
2022/10/18 05:53:53;;;;;;;1.58;1.30;;;16.50;68.80;;;;;;5091093;28;20428;-74
2022/10/18 05:56:20;;;;;;;1.40;1.30;;;16.50;68.80;;;;;;5088105;28;20048;-74
2022/10/18 05:58:49;;;;;;;1.30;1.20;;;16.40;68.70;;;;;;5070322;28;20056;-74
2022/10/18 06:01:16;;;;;;;1.58;1.40;;;16.40;68.70;;;;;;5070832;28;20131;-74
2022/10/18 06:03:43;;;;;;;1.50;1.40;;;16.40;68.70;;;;;;5070978;28;20135;-74
2022/10/18 06:06:12;;;;;;;1.70;1.50;;;16.40;68.70;;;;;;5075539;28;20489;-74
2022/10/18 06:08:39;;;;;;;1.52;1.40;;;16.40;68.70;;;;;;5079537;28;20052;-74
2022/10/18 06:11:06;;;;;;;1.58;1.30;;;16.40;68.70;;;;;;5080808;28;20040;-74
2022/10/18 06:13:33;;;;;;;1.40;1.30;;;16.40;68.70;;;;;;5080387;28;20040;-74
2022/10/18 06:16:00;;;;;;;1.38;1.20;;;16.40;68.80;;;;;;5078713;28;20056;-74
2022/10/18 06:18:27;;;;;;;1.40;1.30;;;16.40;68.80;;;;;;5081294;28;20048;-74
2022/10/18 06:20:57;;;;;;;1.83;1.40;;;16.40;68.70;;;;;;5075707;28;20485;-74
2022/10/18 06:23:25;;;;;;;1.50;1.40;;;16.50;68.80;;;;;;5070547;28;20056;-74
2022/10/18 06:25:52;;;;;;;1.40;1.30;;;16.40;68.80;;;;;;5083029;28;20501;-74
2022/10/18 06:28:19;;;;;;;1.50;1.30;;;16.40;68.80;;;;;;5090464;28;20051;-74
2022/10/18 06:30:45;;;;;;;1.20;1.10;;;16.40;68.70;;;;;;5090664;28;20134;-74
2022/10/18 06:33:12;;;;;;;1.27;1.17;;;16.50;68.80;;;;;;5090467;28;20051;-74
2022/10/18 06:35:39;;;;;;;1.40;1.20;;;16.50;68.80;;;;;;5090885;28;20564;-75
2022/10/18 06:38:06;;;;;;;1.38;1.27;;;16.50;68.70;;;;;;5090467;28;20085;-74
2022/10/18 06:40:36;;;;;;;1.40;1.30;;;16.50;68.70;;;;;;5080114;28;20048;-75
2022/10/18 06:43:05;;;;;;;1.27;1.17;;;16.50;68.60;;;;;;5081798;28;20052;-74
2022/10/18 06:45:31;;;;;;;1.33;1.10;;;16.50;68.50;;;;;;5090367;28;20192;-74
2022/10/18 06:47:58;;;;;;;1.20;1.10;;;16.60;68.50;;;;;;5088728;28;20052;-73
2022/10/18 06:50:25;;;;;;;1.40;1.30;;;16.60;68.40;;;;;;5090755;28;20052;-74
2022/10/18 06:52:52;;;;;;;1.20;1.10;;;16.60;68.60;;;;;;5091031;28;20082;-73
2022/10/18 06:55:18;;;;;;;1.00;1.00;;;16.70;68.20;;;;;;5090576;28;20412;-73
2022/10/18 06:57:47;;;;;;;1.17;1.08;;;16.70;68.20;;;;;;5090052;28;20139;-73
2022/10/18 07:00:14;;;;;;;3.45;1.10;;;16.80;68.10;;;;;;5091451;28;20059;-73
2022/10/18 07:02:43;;;;;;;1.45;1.20;;;16.80;68.00;;;;;;5090686;28;20143;-73
2022/10/18 07:05:10;;;;;;;1.23;1.13;;;16.90;67.90;;;;;;5090593;28;20091;-73
2022/10/18 07:07:37;;;;;;;1.65;1.15;;;16.90;67.80;;;;;;5091608;28;20048;-73
2022/10/18 07:10:05;;;;;;;1.20;1.10;;;16.90;67.80;;;;;;5083212;28;20140;-73
2022/10/18 07:12:32;;;;;;;1.40;1.30;;;17.00;67.80;;;;;;5073704;28;20391;-73
2022/10/18 07:15:00;;;;;;;1.40;1.02;;;17.00;67.70;;;;;;5074193;28;20076;-73
2022/10/18 07:17:26;;;;;;;1.13;1.02;;;17.00;67.60;;;;;;5074241;28;20131;-73
2022/10/18 07:19:53;;;;;;;1.50;1.10;;;17.10;67.60;;;;;;5073876;28;20135;-73
2022/10/18 07:22:20;;;;;;;2.33;1.30;;;17.10;67.60;;;;;;5074946;28;20051;-73
2022/10/18 07:24:46;;;;;;;1.25;1.15;;;17.10;67.50;;;;;;5074057;28;20131;-73
2022/10/18 07:27:13;;;;;;;1.20;1.10;;;17.20;67.50;;;;;;5088557;28;20070;-73
2022/10/18 07:29:40;;;;;;;1.52;1.15;;;17.20;67.50;;;;;;5094155;28;20138;-73
2022/10/18 07:32:08;;;;;;;1.60;1.10;;;17.20;67.40;;;;;;5094638;28;20070;-73
2022/10/18 07:34:35;;;;;;;1.20;1.10;;;17.30;67.30;;;;;;5095190;28;20131;-73
2022/10/18 07:37:01;;;;;;;1.10;1.00;;;17.30;67.30;;;;;;5095064;28;20151;-73
2022/10/18 07:39:28;;;;;;;1.10;1.00;;;17.30;67.20;;;;;;5095169;28;20049;-73
2022/10/18 07:41:55;;;;;;;1.17;1.05;;;17.30;67.20;;;;;;5093331;28;20074;-73
2022/10/18 07:44:22;;;;;;;1.08;0.93;;;17.30;67.10;;;;;;5075920;28;20051;-74
2022/10/18 07:46:49;;;;;;;1.30;1.20;;;17.40;67.20;;;;;;5073392;28;20139;-74
2022/10/18 07:49:17;;;;;;;1.10;1.00;;;17.40;67.10;;;;;;5074752;28;20470;-74
2022/10/18 07:51:43;;;;;;;0.90;0.90;;;17.40;67.10;;;;;;5073603;28;20147;-74
2022/10/18 07:54:10;;;;;;;1.08;1.00;;;17.40;67.10;;;;;;5113251;28;20048;-74
2022/10/18 07:56:37;;;;;;;1.98;1.10;;;17.50;67.10;;;;;;5087073;28;20056;-74
2022/10/18 07:59:03;;;;;;;1.10;1.00;;;17.50;67.00;;;;;;5087670;28;20054;-75
2022/10/18 08:01:30;;;;;;;1.08;0.98;;;17.50;67.00;;;;;;5075036;28;20131;-74
2022/10/18 08:03:59;;;;;;;1.10;1.00;;;17.50;66.90;;;;;;5073104;28;20048;-74
2022/10/18 08:06:27;;;;;;;1.10;1.00;;;17.50;66.90;;;;;;5073444;28;20064;-74
2022/10/18 08:08:54;;;;;;;1.08;0.98;;;17.60;66.90;;;;;;5078257;28;20404;-73
2022/10/18 08:11:22;;;;;;;1.15;1.05;;;17.60;66.90;;;;;;5086517;28;20047;-75
2022/10/18 08:13:49;;;;;;;1.15;0.93;;;17.60;66.90;;;;;;5092493;28;20056;-74
2022/10/18 08:16:17;;;;;;;0.90;0.90;;;17.60;66.80;;;;;;5103094;28;20122;-75
2022/10/18 08:18:43;;;;;;;1.17;1.00;;;17.60;66.70;;;;;;5093138;28;20052;-75
2022/10/18 08:21:11;;;;;;;1.17;0.90;;;17.60;66.70;;;;;;5083431;28;20481;-75
2022/10/18 08:23:43;;;;;;;0.75;0.75;;;17.70;66.70;;;;;;5093046;28;20063;-75
2022/10/18 08:26:21;;;;;;;0.90;0.90;;;17.70;66.80;;;;;;5086436;28;20048;-76
2022/10/18 08:28:59;;;;;;;1.33;1.00;;;17.70;66.70;;;;;;5112541;28;20139;-76
2022/10/18 08:31:29;;;;;;;1.13;1.02;;;17.80;66.70;;;;;;5104751;28;20059;-76
2022/10/18 08:33:56;;;;;;;0.80;0.80;;;17.80;66.70;;;;;;5091660;28;20123;-76
2022/10/18 08:36:23;;;;;;;1.52;1.00;;;17.80;66.60;;;;;;5092652;28;20063;-75
2022/10/18 08:38:51;;;;;;;0.80;0.80;;;17.80;66.50;;;;;;5092694;28;20062;-76
2022/10/18 08:41:41;;;;;;;1.27;1.05;;;17.80;66.50;;;;;;5087144;28;20044;-76
2022/10/18 08:44:10;;;;;;;0.90;0.80;;;17.80;66.50;;;;;;5081265;28;20049;-75
2022/10/18 08:46:38;;;;;;;1.05;0.95;;;17.80;66.50;;;;;;5073597;28;20139;-76
2022/10/18 08:49:05;;;;;;;0.90;0.90;;;17.90;66.50;;;;;;5079297;28;20074;-74
2022/10/18 08:51:34;;;;;;;1.00;0.90;;;17.80;66.40;;;;;;5092367;28;20478;-75
2022/10/18 08:54:07;;;;;;;1.10;0.98;;;17.90;66.40;;;;;;5090262;28;20044;-75
2022/10/18 08:56:34;;;;;;;1.10;1.00;;;18.00;66.60;;;;;;5072957;28;20139;-74
2022/10/18 08:59:01;;;;;;;1.13;1.00;;;17.90;66.60;;;;;;5073838;28;20127;-73
2022/10/18 09:01:32;;;;;;;1.20;1.10;;;17.90;66.60;;;;;;5071870;28;20414;-73
2022/10/18 09:04:21;;;;;;;2.47;1.23;;;17.90;66.70;;;;;;5073451;28;20418;-75
2022/10/18 09:06:52;;;;;;;1.13;0.90;;;17.90;66.80;;;;;;5061550;28;20155;-74
2022/10/18 09:09:32;;;;;;;1.38;1.02;;;17.90;66.90;;;;;;5078840;28;20086;-75
2022/10/18 09:12:03;;;;;;;1.40;1.00;;;17.80;67.00;;;;;;5091616;28;20165;-75
2022/10/18 09:14:49;;;;;;;1.20;1.08;;;17.80;67.10;;;;;;5092071;28;20059;-75
2022/10/18 09:17:21;;;;;;;1.40;1.20;;;17.80;67.20;;;;;;5080822;28;20063;-75
2022/10/18 09:19:54;;;;;;;2.22;1.10;;;17.80;67.30;;;;;;5081229;28;20465;-75
2022/10/18 09:22:22;;;;;;;1.38;0.90;;;17.80;67.30;;;;;;5088657;28;20083;-75
2022/10/18 09:24:52;;;;;;;1.00;0.82;;;17.70;67.30;;;;;;5071691;28;20052;-75
2022/10/18 09:27:20;;;;;;;2.20;0.90;;;17.80;67.40;;;;;;5072034;28;20059;-75
2022/10/18 09:29:54;;;;;;;1.42;0.90;;;17.70;67.40;;;;;;5071496;28;20063;-75
2022/10/18 09:32:26;;;;;;;1.17;1.08;;;17.70;67.40;;;;;;5071296;28;20139;-74
2022/10/18 09:34:53;;;;;;;1.20;1.00;;;17.70;67.40;;;;;;5071614;28;20052;-75
2022/10/18 09:37:21;;;;;;;1.48;1.00;;;17.70;67.50;;;;;;5076218;28;20470;-75
2022/10/18 09:39:50;;;;;;;1.20;1.00;;;17.70;67.50;;;;;;5091782;28;20052;-76
2022/10/18 09:42:25;;;;;;;1.33;0.90;;;17.60;67.50;;;;;;5091986;28;20074;-75
2022/10/18 09:44:54;;;;;;;1.25;1.00;;;17.60;67.50;;;;;;5093038;28;20557;-74
2022/10/18 09:47:23;;;;;;;1.92;1.00;;;17.60;67.50;;;;;;5091426;28;20060;-74
2022/10/18 09:49:52;;;;;;;1.08;0.90;;;17.60;67.60;;;;;;5092364;28;20051;-74
2022/10/18 09:52:20;;;;;;;1.45;1.02;;;17.60;67.60;;;;;;5088434;28;20131;-75
2022/10/18 09:54:49;;;;;;;1.60;1.08;;;17.60;67.60;;;;;;5083482;28;20051;-74
2022/10/18 09:57:18;;;;;;;1.70;1.17;;;17.60;67.60;;;;;;5080583;28;20047;-74
2022/10/18 09:59:46;;;;;;;4.30;0.90;;;17.60;68.20;;;;;;5083615;28;20127;-74
2022/10/18 10:02:14;;;;;;;2.85;1.20;;;17.50;67.60;;;;;;5080047;28;20057;-74
2022/10/18 10:04:41;;;;;;;2.53;1.20;;;17.50;67.70;;;;;;5080385;28;20131;-75
2022/10/18 10:07:08;;;;;;;1.50;1.10;;;17.50;67.70;;;;;;5081800;28;20051;-75
2022/10/18 10:09:37;;;;;;;2.03;1.00;;;17.50;67.70;;;;;;5076519;28;20409;-75
2022/10/18 10:12:05;;;;;;;1.65;1.10;;;17.50;67.70;;;;;;5091807;28;20055;-75
2022/10/18 10:14:32;;;;;;;2.90;1.20;;;17.50;67.70;;;;;;5112736;28;20130;-75
2022/10/18 10:17:01;;;;;;;2.65;1.20;;;17.50;67.80;;;;;;5111667;28;20134;-75
2022/10/18 10:19:29;;;;;;;3.78;1.20;;;17.50;67.80;;;;;;5111482;28;20067;-75
2022/10/18 10:22:01;;;;;;;1.38;0.90;;;17.50;67.80;;;;;;5111281;28;20048;-75
2022/10/18 10:24:40;;;;;;;2.53;1.10;;;17.50;67.80;;;;;;5111735;28;20131;-75
2022/10/18 10:27:15;;;;;;;5.20;1.20;;;17.50;67.80;;;;;;5111552;28;20066;-75
2022/10/18 10:30:03;;;;;;;1.98;1.15;;;17.50;67.90;;;;;;5111172;28;20138;-74
2022/10/18 10:32:31;;;;;;;3.30;0.98;;;17.50;67.80;;;;;;5099209;28;20056;-74
2022/10/18 10:34:57;;;;;;;1.42;0.95;;;17.50;68.00;;;;;;5080928;28;20131;-75
2022/10/18 10:37:34;;;;;;;2.17;1.27;;;17.40;67.90;;;;;;5079019;28;20052;-74
2022/10/18 10:40:06;;;;;;;1.40;1.13;;;17.50;67.90;;;;;;5079277;28;20131;-75
2022/10/18 10:42:34;;;;;;;2.38;1.08;;;17.40;67.90;;;;;;5080213;28;20052;-75
2022/10/18 10:45:01;;;;;;;2.53;1.10;;;17.40;67.90;;;;;;5080478;28;20404;-75
2022/10/18 10:47:28;;;;;;;2.20;1.05;;;17.40;67.90;;;;;;5085409;28;20058;-75
2022/10/18 10:49:55;;;;;;;2.88;1.05;;;17.40;68.00;;;;;;5084429;28;20138;-74
2022/10/18 10:52:22;;;;;;;3.08;1.15;;;17.40;68.00;;;;;;5085242;28;20560;-76
2022/10/18 10:54:49;;;;;;;2.03;1.10;;;17.40;68.00;;;;;;5091941;28;20050;-75
2022/10/18 10:57:19;;;;;;;4.43;1.20;;;17.40;67.90;;;;;;5094347;28;20047;-75
2022/10/18 10:59:47;;;;;;;2.65;1.25;;;17.40;67.90;;;;;;5095053;28;20078;-75
2022/10/18 11:02:20;;;;;;;3.15;1.10;;;17.40;67.90;;;;;;5096087;28;20386;-75
2022/10/18 11:04:48;;;;;;;2.33;1.00;;;17.50;67.90;;;;;;5094594;28;20048;-74
2022/10/18 11:07:16;;;;;;;3.00;1.25;;;17.50;67.90;;;;;;5094279;28;20294;-76
2022/10/18 11:09:48;;;;;;;2.50;1.17;;;17.40;67.80;;;;;;5094575;28;20059;-75
2022/10/18 11:12:20;;;;;;;4.43;1.20;;;17.50;67.80;;;;;;5094499;28;20145;-75
2022/10/18 11:14:51;;;;;;;2.00;1.17;;;17.50;67.80;;;;;;5083154;28;20171;-75
2022/10/18 11:17:22;;;;;;;3.17;1.10;;;17.50;67.80;;;;;;5072988;28;20056;-74
2022/10/18 11:20:24;;;;;;;3.08;1.00;;;17.50;67.90;;;;;;5073917;28;20129;-75
2022/10/18 11:22:59;;;;;;;2.97;1.30;;;17.50;67.80;;;;;;5069030;28;20060;-75
2022/10/18 11:25:27;;;;;;;;;;;17.50;67.90;;;;;;5074357;28;20443;-74
2022/10/18 11:27:55;;;;;;;3.28;1.00;;;17.50;67.80;;;;;;5074897;28;19921;-75
2022/10/18 11:30:37;;;;;;;2.53;1.00;;;17.50;68.00;;;;;;5073644;28;20150;-75
2022/10/18 11:33:06;;;;;;;1.65;0.98;;;17.50;67.90;;;;;;5074798;28;20161;-75
2022/10/18 11:35:39;;;;;;;2.22;1.02;;;17.50;67.90;;;;;;5073549;28;20059;-75
2022/10/18 11:38:20;;;;;;;3.08;1.00;;;17.50;67.90;;;;;;5093774;28;20056;-75
2022/10/18 11:40:54;;;;;;;2.85;1.00;;;17.50;67.90;;;;;;5093121;28;20088;-75
2022/10/18 11:43:23;;;;;;;1.25;1.00;;;17.50;67.90;;;;;;5094029;28;20047;-74
2022/10/18 11:45:54;;;;;;;1.40;0.95;;;17.50;67.90;;;;;;5091644;28;20044;-74
2022/10/18 11:48:35;;;;;;;2.53;1.10;;;17.50;67.90;;;;;;5094635;28;20135;-74
2022/10/18 11:51:04;;;;;;;2.05;1.17;;;17.50;67.90;;;;;;5074282;28;20058;-73
2022/10/18 11:53:34;;;;;;;1.20;0.80;;;17.50;67.90;;;;;;5074018;28;20135;-76
2022/10/18 11:56:04;;;;;;;2.45;0.98;;;17.50;67.80;;;;;;5079487;28;20127;-74
2022/10/18 11:58:51;;;;;;;2.03;1.00;;;17.50;67.80;;;;;;5070137;28;20048;-75
2022/10/18 12:01:24;;;;;;;3.15;1.20;;;17.50;67.70;;;;;;5071407;28;20067;-75
2022/10/18 12:03:54;;;;;;;1.95;0.90;;;17.50;67.80;;;;;;5073474;28;20064;-74
2022/10/18 12:06:21;;;;;;;2.22;1.10;;;17.50;67.80;;;;;;5072031;28;20400;-75
2022/10/18 12:08:49;;;;;;;2.63;1.35;;;17.50;67.80;;;;;;5073294;28;20056;-75
2022/10/18 12:11:18;;;;;;;0.95;0.80;;;17.50;67.80;;;;;;5072999;28;20056;-75
2022/10/18 12:13:47;;;;;;;2.72;1.13;;;17.50;68.40;;;;;;5071994;28;20139;-74
2022/10/18 12:16:13;;;;;;;1.27;1.00;;;17.50;67.80;;;;;;5073021;28;20059;-74
2022/10/18 12:18:47;;;;;;;1.35;0.98;;;17.50;67.80;;;;;;5072567;28;20132;-75
2022/10/18 12:21:14;;;;;;;1.73;0.93;;;17.40;67.70;;;;;;5073036;28;20056;-74
2022/10/18 12:23:45;;;;;;;2.67;0.90;;;17.50;67.90;;;;;;5087294;28;20060;-74
2022/10/18 12:26:11;;;;;;;2.33;1.10;;;17.50;67.80;;;;;;5095008;28;20466;-75
2022/10/18 12:28:44;;;;;;;2.05;1.10;;;17.50;68.40;;;;;;5092358;28;20138;-74
2022/10/18 12:31:16;;;;;;;2.45;1.00;;;17.50;67.90;;;;;;5078160;28;20060;-74
2022/10/18 12:33:48;;;;;;;2.25;1.10;;;17.40;67.80;;;;;;5093644;28;20140;-75
2022/10/18 12:36:22;;;;;;;1.67;1.05;;;17.50;67.90;;;;;;5091026;28;20122;-75
2022/10/18 12:38:50;;;;;;;1.75;0.98;;;17.50;67.90;;;;;;5093220;28;20062;-74
2022/10/18 12:41:19;;;;;;;1.50;1.00;;;17.50;67.90;;;;;;5092490;28;20450;-75
2022/10/18 12:43:51;;;;;;;3.80;1.05;;;17.50;67.90;;;;;;5091579;28;20142;-74
2022/10/18 12:46:17;;;;;;;2.00;1.17;;;17.50;67.90;;;;;;5092341;28;20060;-74
2022/10/18 12:48:48;;;;;;;1.40;0.88;;;17.40;67.80;;;;;;5080084;28;20052;-74
2022/10/18 12:51:15;;;;;;;2.90;1.20;;;17.50;67.80;;;;;;5078830;28;20056;-74
2022/10/18 12:53:44;;;;;;;3.15;1.05;;;17.50;67.80;;;;;;5080885;28;20131;-73
2022/10/18 12:56:40;;;;;;;1.00;0.88;;;17.50;67.80;;;;;;5082546;28;20040;-74